Time;durP1;ratioP1;P1;durP2;ratioP2;P2;SDS_P1;SDS_P2;PMS_P1;PMS_P2;Temp;Humidity;BMP_temperature;BMP_pressure;BME280_temperature;BME280_humidity;BME280_pressure;Samples;Min_cycle;Max_cycle;Signal;HPM_P1;HPM_P2
2024/05/04 00:01:06;;;;;;;6.88;4.40;;;16.10;5.00;;;;;;5412109;26;20261;-71
2024/05/04 00:03:32;;;;;;;4.93;3.67;;;16.00;5.00;;;;;;5411827;26;20587;-73
2024/05/04 00:05:57;;;;;;;5.43;4.13;;;16.00;5.00;;;;;;5411873;26;20288;-72
2024/05/04 00:08:23;;;;;;;4.65;4.10;;;16.00;5.00;;;;;;5411938;26;20702;-72
2024/05/04 00:10:48;;;;;;;5.00;3.67;;;15.90;5.00;;;;;;5411747;26;20227;-72
2024/05/04 00:13:14;;;;;;;7.50;4.60;;;15.90;5.00;;;;;;5411639;26;20331;-73
2024/05/04 00:15:39;;;;;;;4.75;4.05;;;15.90;5.00;;;;;;5411463;26;20214;-72
2024/05/04 00:18:05;;;;;;;5.43;4.35;;;15.80;5.00;;;;;;5412060;26;20578;-71
2024/05/04 00:20:30;;;;;;;7.82;4.18;;;15.80;5.00;;;;;;5411416;26;20219;-71
2024/05/04 00:22:56;;;;;;;7.38;4.32;;;15.80;5.00;;;;;;5411258;26;20257;-72
2024/05/04 00:25:21;;;;;;;4.80;4.30;;;15.90;5.00;;;;;;5410081;26;20635;-71
2024/05/04 00:27:46;;;;;;;7.20;4.15;;;15.90;5.00;;;;;;5411527;26;20215;-71
2024/05/04 00:30:12;;;;;;;5.30;4.05;;;15.90;5.00;;;;;;5411471;26;20628;-71
2024/05/04 00:32:37;;;;;;;6.72;4.53;;;15.90;5.00;;;;;;5411967;26;20212;-71
2024/05/04 00:35:03;;;;;;;7.10;4.50;;;15.90;5.00;;;;;;5414878;26;20227;-71
2024/05/04 00:37:29;;;;;;;4.90;4.38;;;15.90;5.00;;;;;;5414952;26;20275;-73
2024/05/04 00:39:54;;;;;;;10.55;4.25;;;15.90;5.00;;;;;;5414880;26;20215;-75
2024/05/04 00:42:20;;;;;;;7.47;4.30;;;15.90;5.00;;;;;;5414912;26;20215;-75
2024/05/04 00:44:45;;;;;;;7.07;4.70;;;15.90;5.00;;;;;;5414821;26;20690;-74
2024/05/04 00:47:11;;;;;;;6.03;4.10;;;15.90;5.00;;;;;;5414827;26;20257;-73
2024/05/04 00:49:37;;;;;;;6.07;4.80;;;16.00;5.00;;;;;;5414622;26;20261;-73
2024/05/04 00:52:03;;;;;;;6.75;4.40;;;15.90;5.00;;;;;;5414882;26;20215;-74
2024/05/04 00:54:29;;;;;;;5.07;4.20;;;15.90;5.00;;;;;;5414658;26;20278;-74
2024/05/04 00:56:55;;;;;;;5.82;5.10;;;15.90;5.00;;;;;;5412943;26;20231;-73
2024/05/04 00:59:21;;;;;;;5.43;4.22;;;15.90;5.00;;;;;;5411809;26;20215;-73
2024/05/04 01:01:47;;;;;;;4.57;4.18;;;15.80;5.00;;;;;;5414861;26;20738;-76
2024/05/04 01:04:13;;;;;;;6.50;4.20;;;15.90;5.00;;;;;;5413682;26;20231;-75
2024/05/04 01:06:40;;;;;;;5.93;4.00;;;15.80;5.00;;;;;;5414240;26;20223;-73
2024/05/04 01:09:05;;;;;;;6.75;4.20;;;15.90;5.00;;;;;;5414485;26;20253;-73
2024/05/04 01:11:31;;;;;;;4.55;3.90;;;15.80;5.00;;;;;;5414433;26;20222;-73
2024/05/04 01:13:56;;;;;;;5.05;3.97;;;15.70;5.00;;;;;;5414647;26;20234;-74
2024/05/04 01:16:22;;;;;;;4.95;3.95;;;15.70;5.00;;;;;;5414226;26;20226;-72
2024/05/04 01:18:49;;;;;;;8.25;4.30;;;15.70;5.00;;;;;;5414318;26;20258;-75
2024/05/04 01:21:15;;;;;;;8.73;4.43;;;15.70;5.00;;;;;;5382917;26;20230;-74
2024/05/04 01:23:41;;;;;;;5.57;4.55;;;15.70;5.00;;;;;;5414258;26;20275;-73
2024/05/04 01:26:07;;;;;;;5.88;4.00;;;15.70;5.00;;;;;;5414108;26;20568;-74
2024/05/04 01:28:32;;;;;;;6.40;4.05;;;15.70;5.00;;;;;;5414245;26;20210;-73
2024/05/04 01:30:58;;;;;;;7.88;4.40;;;15.70;5.00;;;;;;5413501;26;20222;-73
2024/05/04 01:33:24;;;;;;;4.28;3.88;;;15.70;5.00;;;;;;5414137;26;20306;-73
2024/05/04 01:35:49;;;;;;;4.97;3.75;;;15.70;5.00;;;;;;5413219;26;20284;-74
2024/05/04 01:38:15;;;;;;;3.97;3.58;;;15.70;5.00;;;;;;5414250;26;20691;-73
2024/05/04 01:40:42;;;;;;;8.68;4.40;;;15.70;5.00;;;;;;5414006;26;20274;-74
2024/05/04 01:43:08;;;;;;;11.88;4.07;;;15.70;5.00;;;;;;5414164;26;20777;-74
2024/05/04 01:45:34;;;;;;;7.70;4.30;;;15.70;5.00;;;;;;5412187;26;20595;-74
2024/05/04 01:47:59;;;;;;;9.10;4.15;;;15.60;5.00;;;;;;5414057;26;20214;-74
2024/05/04 01:50:26;;;;;;;5.45;3.95;;;15.60;5.00;;;;;;5413371;26;20327;-75
2024/05/04 01:52:52;;;;;;;7.28;4.13;;;15.60;5.00;;;;;;5413884;26;20271;-72
2024/05/04 01:55:17;;;;;;;4.38;3.95;;;15.60;5.00;;;;;;5413961;26;20231;-74
2024/05/04 01:57:46;;;;;;;5.75;4.00;;;15.60;5.00;;;;;;5414184;26;20219;-73
2024/05/04 02:00:11;;;;;;;4.88;3.75;;;15.60;5.00;;;;;;5413787;26;20286;-73
2024/05/04 02:02:37;;;;;;;5.80;3.78;;;15.60;5.00;;;;;;5413969;26;20218;-73
2024/05/04 02:05:02;;;;;;;6.85;3.78;;;15.50;5.00;;;;;;5413581;26;20230;-72
2024/05/04 02:07:28;;;;;;;5.68;4.05;;;15.50;5.00;;;;;;5413937;26;20326;-75
2024/05/04 02:09:53;;;;;;;7.10;3.95;;;15.50;5.00;;;;;;5413779;26;20666;-73
2024/05/04 02:12:19;;;;;;;6.15;3.80;;;15.50;5.00;;;;;;5413803;26;20223;-74
2024/05/04 02:14:44;;;;;;;9.38;4.45;;;15.50;5.00;;;;;;5413531;26;20277;-72
2024/05/04 02:17:10;;;;;;;10.63;3.90;;;15.50;5.00;;;;;;5413193;26;20214;-73
2024/05/04 02:19:35;;;;;;;4.85;3.35;;;15.60;5.00;;;;;;5413476;26;20643;-73
2024/05/04 02:22:01;;;;;;;7.97;4.43;;;15.50;5.00;;;;;;5413380;26;20257;-72
2024/05/04 02:24:27;;;;;;;9.02;4.38;;;15.50;5.00;;;;;;5412268;26;20721;-73
2024/05/04 02:26:52;;;;;;;7.90;4.13;;;15.40;5.00;;;;;;5412361;26;20231;-71
2024/05/04 02:29:18;;;;;;;5.68;4.13;;;15.40;5.00;;;;;;5454947;21;20264;-70
2024/05/04 02:31:43;;;;;;;7.20;4.20;;;15.40;5.00;;;;;;5444622;26;20241;-70
2024/05/04 02:34:09;;;;;;;5.43;3.75;;;15.40;5.00;;;;;;5443457;26;20259;-70
2024/05/04 02:36:36;;;;;;;5.95;3.40;;;15.40;5.00;;;;;;5485444;26;20700;-70
2024/05/04 02:39:02;;;;;;;3.80;3.40;;;15.30;5.00;;;;;;5462400;26;20235;-70
2024/05/04 02:41:27;;;;;;;6.03;3.75;;;15.40;5.00;;;;;;5522415;25;20761;-70
2024/05/04 02:43:53;;;;;;;4.20;3.53;;;15.50;5.00;;;;;;5521944;25;20220;-70
2024/05/04 02:46:18;;;;;;;6.38;3.78;;;15.40;5.00;;;;;;5510107;26;20297;-70
2024/05/04 02:48:44;;;;;;;6.47;3.50;;;15.30;5.00;;;;;;5489291;26;20276;-70
2024/05/04 02:51:09;;;;;;;4.15;3.40;;;15.40;5.00;;;;;;5485642;26;20225;-70
2024/05/04 02:53:34;;;;;;;5.13;3.65;;;15.40;5.00;;;;;;5485237;26;20232;-70
2024/05/04 02:56:00;;;;;;;6.10;4.15;;;15.40;5.00;;;;;;5484600;26;20220;-70
2024/05/04 02:58:30;;;;;;;5.20;3.97;;;15.40;5.00;;;;;;4894291;25;10001781;-70
2024/05/04 03:00:55;;;;;;;7.35;3.63;;;15.40;5.00;;;;;;5484336;26;20696;-70
2024/05/04 03:03:21;;;;;;;4.22;3.05;;;15.30;5.00;;;;;;5485526;26;20289;-70
2024/05/04 03:05:46;;;;;;;7.95;4.47;;;15.40;5.00;;;;;;5484887;26;20267;-70
2024/05/04 03:08:12;;;;;;;6.38;3.67;;;15.30;5.00;;;;;;5485052;26;20213;-70
2024/05/04 03:10:37;;;;;;;6.63;3.92;;;15.30;5.00;;;;;;5484737;26;20236;-70
2024/05/04 03:13:03;;;;;;;6.88;3.72;;;15.30;5.00;;;;;;5485002;26;20216;-70
2024/05/04 03:15:28;;;;;;;10.38;3.55;;;15.30;5.00;;;;;;5485132;26;20831;-70
2024/05/04 03:17:54;;;;;;;7.65;4.15;;;15.30;5.00;;;;;;5485216;26;20324;-70
2024/05/04 03:20:19;;;;;;;7.65;3.55;;;15.20;5.00;;;;;;5484824;26;20275;-70
2024/05/04 03:22:45;;;;;;;5.35;3.13;;;15.20;5.00;;;;;;5452659;26;20248;-70
2024/05/04 03:25:10;;;;;;;5.07;3.47;;;15.20;5.00;;;;;;5452351;26;20221;-70
2024/05/04 03:27:36;;;;;;;5.05;3.60;;;15.20;5.00;;;;;;5484828;26;20267;-70
2024/05/04 03:30:01;;;;;;;6.03;3.53;;;15.10;5.00;;;;;;5452519;26;20634;-70
2024/05/04 03:32:27;;;;;;;4.65;4.07;;;15.20;5.00;;;;;;5484872;26;20280;-70
2024/05/04 03:34:53;;;;;;;6.93;3.30;;;15.20;5.00;;;;;;5452133;26;20271;-70
2024/05/04 03:37:18;;;;;;;6.13;3.25;;;15.20;5.00;;;;;;5484309;26;20228;-70
2024/05/04 03:39:44;;;;;;;5.90;3.53;;;15.20;5.00;;;;;;5484468;26;20305;-70
2024/05/04 03:42:09;;;;;;;3.60;3.30;;;15.10;5.00;;;;;;5484314;26;20731;-70
2024/05/04 03:44:35;;;;;;;4.63;3.88;;;15.10;5.00;;;;;;5485379;26;21015;-70
2024/05/04 03:47:00;;;;;;;6.10;3.60;;;15.10;5.00;;;;;;5484043;26;20686;-70
2024/05/04 03:49:26;;;;;;;4.88;3.63;;;15.10;5.00;;;;;;5451734;26;20275;-70
2024/05/04 03:51:51;;;;;;;5.65;4.25;;;15.20;5.00;;;;;;5484030;26;20280;-70
2024/05/04 03:54:17;;;;;;;4.05;3.67;;;15.10;5.00;;;;;;5484370;26;20220;-70
2024/05/04 03:56:42;;;;;;;5.10;3.75;;;15.10;5.00;;;;;;5483970;26;20275;-70
2024/05/04 03:59:07;;;;;;;6.95;3.90;;;15.10;5.00;;;;;;5484025;26;20232;-70
2024/05/04 04:01:33;;;;;;;4.93;4.32;;;15.10;5.00;;;;;;5483610;26;20212;-70
2024/05/04 04:03:58;;;;;;;6.57;4.05;;;15.10;5.00;;;;;;5484046;26;20317;-70
2024/05/04 04:06:24;;;;;;;5.90;3.70;;;15.10;5.00;;;;;;5483796;26;20224;-70
2024/05/04 04:08:49;;;;;;;4.65;3.65;;;15.40;5.00;;;;;;5485831;26;20232;-70
2024/05/04 04:11:15;;;;;;;4.20;3.67;;;15.10;5.00;;;;;;5487853;26;20637;-70
2024/05/04 04:13:40;;;;;;;6.43;4.07;;;15.10;5.00;;;;;;5487604;26;20696;-70
2024/05/04 04:16:06;;;;;;;6.28;4.13;;;15.10;5.00;;;;;;5455163;26;20224;-70
2024/05/04 04:18:31;;;;;;;7.40;4.30;;;15.10;5.00;;;;;;5455186;26;20224;-70
2024/05/04 04:20:57;;;;;;;7.65;4.80;;;15.10;5.00;;;;;;5487107;26;20287;-70
2024/05/04 04:23:22;;;;;;;7.18;3.75;;;15.40;5.00;;;;;;5455593;26;20680;-70
2024/05/04 04:25:48;;;;;;;4.88;3.85;;;15.10;5.00;;;;;;5487203;26;20328;-70
2024/05/04 04:28:13;;;;;;;6.68;3.72;;;15.20;5.00;;;;;;5455294;26;20263;-70
2024/05/04 04:30:39;;;;;;;5.22;4.10;;;15.10;5.00;;;;;;5487116;26;20471;-70
2024/05/04 04:33:04;;;;;;;9.10;5.07;;;15.10;5.00;;;;;;5454918;26;20254;-70
2024/05/04 04:35:30;;;;;;;5.65;4.40;;;15.20;5.00;;;;;;5485989;26;20212;-70
2024/05/04 04:37:56;;;;;;;5.85;3.90;;;15.30;5.00;;;;;;5487367;26;20803;-70
2024/05/04 04:40:21;;;;;;;6.90;4.57;;;15.20;5.00;;;;;;5486926;26;20357;-70
2024/05/04 04:42:47;;;;;;;9.15;4.45;;;15.20;5.00;;;;;;5486825;26;20247;-70
2024/05/04 04:45:12;;;;;;;4.32;3.83;;;15.30;5.00;;;;;;5454697;26;20307;-70
2024/05/04 04:47:38;;;;;;;5.60;3.70;;;15.20;5.00;;;;;;5485974;26;20213;-70
2024/05/04 04:50:03;;;;;;;6.93;3.90;;;15.30;5.00;;;;;;5486789;26;20229;-70
2024/05/04 04:52:29;;;;;;;8.05;4.35;;;15.20;5.00;;;;;;5487080;26;20629;-70
2024/05/04 04:54:54;;;;;;;7.97;4.38;;;15.20;5.00;;;;;;5486846;26;20213;-70
2024/05/04 04:57:20;;;;;;;6.45;3.90;;;15.30;5.00;;;;;;5486491;26;20321;-70
2024/05/04 04:59:45;;;;;;;7.10;4.22;;;15.40;5.00;;;;;;5486568;26;20725;-70
2024/05/04 05:02:10;;;;;;;5.75;3.80;;;15.40;5.00;;;;;;5454924;26;20220;-70
2024/05/04 05:04:36;;;;;;;6.40;3.85;;;15.40;5.00;;;;;;5455217;26;20241;-70
2024/05/04 05:07:01;;;;;;;6.97;4.07;;;15.40;5.00;;;;;;5486558;26;20630;-70
2024/05/04 05:09:27;;;;;;;8.18;4.70;;;15.40;5.00;;;;;;5454395;26;20229;-70
2024/05/04 05:11:52;;;;;;;8.25;4.30;;;15.40;5.00;;;;;;5486763;26;20341;-70
2024/05/04 05:14:18;;;;;;;9.20;4.43;;;15.50;5.00;;;;;;5486781;26;20277;-70
2024/05/04 05:16:45;;;;;;;8.98;3.83;;;15.60;5.00;;;;;;5486592;26;20220;-70
2024/05/04 05:19:10;;;;;;;5.63;4.18;;;15.50;5.00;;;;;;5485132;26;20224;-70
2024/05/04 05:21:36;;;;;;;4.15;3.65;;;15.60;5.00;;;;;;5454172;26;20598;-70
2024/05/04 05:24:01;;;;;;;7.15;4.50;;;15.60;5.00;;;;;;5486532;26;20220;-71
2024/05/04 05:26:27;;;;;;;4.95;4.10;;;15.70;5.00;;;;;;5486175;26;20947;-70
2024/05/04 05:28:52;;;;;;;4.43;3.78;;;15.70;5.00;;;;;;5454046;26;20305;-70
2024/05/04 05:31:18;;;;;;;6.45;4.20;;;15.70;5.00;;;;;;5454682;26;20221;-70
2024/05/04 05:33:43;;;;;;;5.88;3.17;;;15.80;5.00;;;;;;5486037;26;20228;-70
2024/05/04 05:36:09;;;;;;;6.20;3.53;;;15.70;5.00;;;;;;5485336;26;20255;-70
2024/05/04 05:38:34;;;;;;;6.30;4.00;;;15.80;5.00;;;;;;5500260;26;20722;-70
2024/05/04 05:41:00;;;;;;;6.10;4.00;;;15.80;5.00;;;;;;5504824;25;20299;-70
2024/05/04 05:43:25;;;;;;;7.75;3.90;;;15.80;5.00;;;;;;5501974;26;20256;-70
2024/05/04 05:45:51;;;;;;;5.05;3.67;;;15.90;5.00;;;;;;5504451;26;20268;-70
2024/05/04 05:48:16;;;;;;;6.78;4.03;;;15.90;5.00;;;;;;5471778;26;20240;-71
2024/05/04 05:50:42;;;;;;;4.65;3.58;;;15.90;5.00;;;;;;5500561;26;20267;-70
2024/05/04 05:53:08;;;;;;;8.02;3.92;;;15.90;5.00;;;;;;5504567;26;20220;-70
2024/05/04 05:55:34;;;;;;;5.30;3.90;;;15.90;5.00;;;;;;5470312;26;20240;-70
2024/05/04 05:58:04;;;;;;;8.73;3.78;;;15.90;5.00;;;;;;5500832;26;20284;-70
2024/05/04 06:00:30;;;;;;;4.25;3.83;;;16.00;5.00;;;;;;5472633;26;20278;-70
2024/05/04 06:02:55;;;;;;;6.95;3.55;;;16.00;5.00;;;;;;5503677;26;20232;-70
2024/05/04 06:05:21;;;;;;;5.07;3.88;;;16.10;5.00;;;;;;5501364;26;20701;-70
2024/05/04 06:07:46;;;;;;;6.35;3.88;;;16.10;5.00;;;;;;5486516;26;20272;-70
2024/05/04 06:10:12;;;;;;;5.03;3.10;;;16.20;5.00;;;;;;5471057;26;20766;-70
2024/05/04 06:12:37;;;;;;;6.60;3.22;;;16.20;5.00;;;;;;5495157;25;20228;-70
2024/05/04 06:15:03;;;;;;;4.53;3.10;;;16.30;5.00;;;;;;5504838;25;20295;-70
2024/05/04 06:17:29;;;;;;;4.88;3.10;;;16.30;5.00;;;;;;5504072;25;20335;-70
2024/05/04 06:19:55;;;;;;;6.78;3.40;;;16.40;5.00;;;;;;5522005;25;20259;-70
2024/05/04 06:22:21;;;;;;;3.70;3.30;;;16.50;5.00;;;;;;5522355;25;20211;-70
2024/05/04 06:24:46;;;;;;;5.40;3.13;;;16.50;5.00;;;;;;5522469;25;20849;-70
2024/05/04 06:27:12;;;;;;;6.68;3.40;;;16.50;5.00;;;;;;5521564;25;20216;-70
2024/05/04 06:29:38;;;;;;;5.10;2.80;;;16.60;5.00;;;;;;5521689;26;20326;-70
2024/05/04 06:32:04;;;;;;;6.95;2.80;;;16.70;5.00;;;;;;5521356;25;20208;-70
2024/05/04 06:34:31;;;;;;;5.97;2.92;;;16.70;5.00;;;;;;5521798;25;20215;-70
2024/05/04 06:36:56;;;;;;;9.15;2.70;;;16.80;5.00;;;;;;5489593;26;20229;-70
2024/05/04 06:39:22;;;;;;;4.22;2.40;;;16.90;5.00;;;;;;5521653;25;20258;-70
2024/05/04 06:41:47;;;;;;;3.35;2.40;;;17.00;5.00;;;;;;5489737;26;20927;-70
2024/05/04 06:44:13;;;;;;;4.72;2.70;;;17.00;5.00;;;;;;5520959;25;20246;-70
2024/05/04 06:46:38;;;;;;;3.08;2.05;;;17.10;5.00;;;;;;5521603;25;20287;-70
2024/05/04 06:49:04;;;;;;;3.90;2.45;;;17.40;5.00;;;;;;5521932;25;20273;-70
2024/05/04 06:51:29;;;;;;;4.80;2.03;;;17.30;5.00;;;;;;5489562;26;20311;-70
2024/05/04 06:53:55;;;;;;;3.05;2.35;;;17.40;5.00;;;;;;5521994;26;20211;-70
2024/05/04 06:56:20;;;;;;;9.52;2.33;;;17.40;5.00;;;;;;5489410;26;20215;-70
2024/05/04 06:58:45;;;;;;;3.47;2.10;;;17.50;5.00;;;;;;5489159;26;20259;-70
2024/05/04 07:01:11;;;;;;;6.82;2.00;;;17.60;5.00;;;;;;5521440;26;20231;-70
2024/05/04 07:03:38;;;;;;;4.95;2.38;;;17.70;5.00;;;;;;5489794;26;20262;-70
2024/05/04 07:06:03;;;;;;;4.15;2.10;;;17.70;5.00;;;;;;5489071;26;20250;-70
2024/05/04 07:08:29;;;;;;;7.32;2.35;;;17.90;5.00;;;;;;5521510;25;20216;-70
2024/05/04 07:10:54;;;;;;;8.95;2.85;;;17.90;5.00;;;;;;5521892;25;20795;-71
2024/05/04 07:13:20;;;;;;;3.17;2.85;;;17.90;5.00;;;;;;5489224;26;20223;-70
2024/05/04 07:15:45;;;;;;;4.25;2.15;;;17.90;5.00;;;;;;5521432;25;20211;-70
2024/05/04 07:18:11;;;;;;;7.28;2.58;;;17.90;5.00;;;;;;5488874;26;20646;-70
2024/05/04 07:20:36;;;;;;;3.33;2.22;;;18.00;5.00;;;;;;5489017;26;20303;-70
2024/05/04 07:23:02;;;;;;;4.40;2.67;;;18.00;5.00;;;;;;5521321;25;20219;-70
2024/05/04 07:25:27;;;;;;;8.18;3.33;;;18.10;5.00;;;;;;5521185;26;20223;-70
2024/05/04 07:27:53;;;;;;;6.47;3.38;;;18.10;5.00;;;;;;5521469;25;20212;-70
2024/05/04 07:30:18;;;;;;;11.38;3.17;;;18.10;5.00;;;;;;5521402;25;20301;-70
2024/05/04 07:32:44;;;;;;;7.85;3.15;;;18.10;5.00;;;;;;5521665;25;20250;-70
2024/05/04 07:35:09;;;;;;;4.47;3.05;;;18.10;5.00;;;;;;5520686;25;20212;-70
2024/05/04 07:37:35;;;;;;;5.60;3.35;;;18.50;5.00;;;;;;5488999;25;20518;-70
2024/05/04 07:40:00;;;;;;;9.27;3.60;;;18.20;5.00;;;;;;5488740;25;20243;-70
2024/05/04 07:42:26;;;;;;;6.45;3.38;;;18.30;5.00;;;;;;5519634;25;20950;-70
2024/05/04 07:44:51;;;;;;;7.55;3.33;;;18.50;5.00;;;;;;5521410;25;20211;-70
2024/05/04 07:47:17;;;;;;;20.85;3.33;;;18.50;5.00;;;;;;5488523;26;20220;-70
2024/05/04 07:49:42;;;;;;;7.03;2.97;;;18.60;5.00;;;;;;5520967;25;20243;-70
2024/05/04 07:52:11;;;;;;;6.35;3.20;;;18.60;5.00;;;;;;5488227;26;20726;-70
2024/05/04 07:54:37;;;;;;;8.65;4.50;;;18.60;5.00;;;;;;5521026;25;20266;-70
2024/05/04 07:57:06;;;;;;;10.43;4.78;;;18.60;5.00;;;;;;5521051;25;20680;-70
2024/05/04 07:59:32;;;;;;;6.78;3.72;;;18.60;5.00;;;;;;5488223;26;20310;-70
2024/05/04 08:01:57;;;;;;;7.72;5.32;;;18.80;5.00;;;;;;5488323;26;20223;-70
2024/05/04 08:04:23;;;;;;;8.98;4.90;;;18.60;5.00;;;;;;5521273;25;20216;-70
2024/05/04 08:06:48;;;;;;;7.45;3.88;;;18.60;5.00;;;;;;5520643;25;20811;-70
2024/05/04 08:09:14;;;;;;;10.15;3.70;;;18.70;5.00;;;;;;5520672;25;20254;-70
2024/05/04 08:11:40;;;;;;;10.57;4.20;;;18.70;5.00;;;;;;5520853;26;20258;-70
2024/05/04 08:14:05;;;;;;;8.65;4.25;;;18.80;5.00;;;;;;5521614;25;20219;-70
2024/05/04 08:16:31;;;;;;;13.35;4.57;;;18.70;5.00;;;;;;5487805;26;20219;-71
2024/05/04 08:18:59;;;;;;;8.30;4.75;;;18.70;5.00;;;;;;5520298;26;20278;-70
2024/05/04 08:21:25;;;;;;;7.47;4.20;;;18.70;5.00;;;;;;5488099;25;20273;-70
2024/05/04 08:23:50;;;;;;;8.60;4.68;;;18.70;5.00;;;;;;5520604;25;20564;-70
2024/05/04 08:26:16;;;;;;;10.20;5.40;;;18.70;5.00;;;;;;5520106;26;20220;-70
2024/05/04 08:28:41;;;;;;;11.43;4.50;;;18.70;5.00;;;;;;5520685;25;20262;-70
2024/05/04 08:31:07;;;;;;;10.90;5.22;;;18.60;5.00;;;;;;5519024;25;20271;-70
2024/05/04 08:33:32;;;;;;;8.07;4.55;;;18.60;5.00;;;;;;5499989;25;20254;-70
2024/05/04 08:35:58;;;;;;;8.30;4.10;;;18.70;5.00;;;;;;5483205;26;20220;-70
2024/05/04 08:38:23;;;;;;;5.63;3.97;;;18.80;5.00;;;;;;5483451;26;20902;-70
2024/05/04 08:40:49;;;;;;;8.35;4.57;;;19.00;5.00;;;;;;5483089;26;20228;-70
2024/05/04 08:43:17;;;;;;;12.43;4.93;;;19.00;5.00;;;;;;5451156;26;20221;-70
2024/05/04 08:45:44;;;;;;;8.60;4.05;;;19.00;5.00;;;;;;5451018;26;20259;-70
2024/05/04 08:48:12;;;;;;;11.35;4.47;;;19.10;5.00;;;;;;5483085;26;20277;-70
2024/05/04 08:50:38;;;;;;;12.43;4.45;;;19.20;5.00;;;;;;5483287;26;20640;-70
2024/05/04 08:53:05;;;;;;;7.60;4.13;;;19.40;5.00;;;;;;5452018;26;20244;-70
2024/05/04 08:55:31;;;;;;;10.45;4.93;;;19.50;5.00;;;;;;5486171;26;20255;-70
2024/05/04 08:57:56;;;;;;;6.33;3.93;;;19.60;5.00;;;;;;4728315;25;10000621;-70
2024/05/04 09:00:23;;;;;;;11.48;4.40;;;19.70;5.00;;;;;;5486978;26;20525;-70
2024/05/04 09:02:49;;;;;;;10.02;3.92;;;19.80;5.00;;;;;;5487589;26;20306;-70
2024/05/04 09:05:17;;;;;;;7.95;4.25;;;19.80;5.00;;;;;;5486853;26;20319;-70
2024/05/04 09:07:42;;;;;;;12.18;4.35;;;19.80;5.00;;;;;;5487033;26;20263;-70
2024/05/04 09:10:08;;;;;;;6.53;4.20;;;19.90;5.00;;;;;;5454596;26;20245;-70
2024/05/04 09:12:36;;;;;;;10.90;4.63;;;19.90;5.00;;;;;;5454519;26;20228;-70
2024/05/04 09:15:01;;;;;;;13.40;4.75;;;20.00;5.00;;;;;;5487661;26;20262;-70
2024/05/04 09:17:27;;;;;;;8.73;4.28;;;20.00;5.00;;;;;;5462048;26;20225;-70
2024/05/04 09:19:52;;;;;;;7.80;4.20;;;20.10;5.00;;;;;;5489328;26;20248;-70
2024/05/04 09:22:18;;;;;;;11.18;4.65;;;20.20;5.00;;;;;;5486039;26;20217;-70
2024/05/04 09:24:44;;;;;;;8.00;4.10;;;20.30;5.00;;;;;;5486251;26;20292;-70
2024/05/04 09:27:09;;;;;;;5.95;3.97;;;20.30;5.00;;;;;;5486424;26;20216;-70
2024/05/04 09:29:39;;;;;;;8.23;3.92;;;20.30;5.00;;;;;;5453513;26;20724;-70
2024/05/04 09:32:08;;;;;;;10.32;4.30;;;20.40;5.00;;;;;;5454438;26;20275;-70
2024/05/04 09:34:37;;;;;;;10.98;5.22;;;20.60;5.00;;;;;;5486868;26;20270;-70
2024/05/04 09:37:09;;;;;;;8.45;3.97;;;20.70;5.00;;;;;;5486393;26;20221;-70
2024/05/04 09:39:35;;;;;;;5.97;3.58;;;20.80;5.00;;;;;;5486129;26;20322;-70
2024/05/04 09:42:04;;;;;;;9.35;3.95;;;20.80;5.00;;;;;;5486497;26;20622;-70
2024/05/04 09:44:29;;;;;;;6.70;4.03;;;20.80;5.00;;;;;;5486260;26;20221;-70
2024/05/04 09:46:58;;;;;;;12.02;3.95;;;20.90;5.00;;;;;;5453763;26;20229;-70
2024/05/04 09:49:26;;;;;;;5.80;3.63;;;20.90;5.00;;;;;;5485743;26;20237;-70
2024/05/04 09:51:52;;;;;;;7.40;4.22;;;21.00;5.00;;;;;;5486222;26;20321;-70
2024/05/04 09:54:18;;;;;;;6.93;3.90;;;21.00;5.00;;;;;;5486216;26;20320;-70
2024/05/04 09:56:44;;;;;;;7.43;3.67;;;21.10;5.00;;;;;;5453862;26;20237;-70
2024/05/04 09:59:12;;;;;;;8.25;3.70;;;21.10;5.00;;;;;;5485353;26;20232;-70
2024/05/04 10:01:39;;;;;;;4.68;3.58;;;21.10;5.00;;;;;;5486099;26;20937;-70
2024/05/04 10:04:11;;;;;;;9.63;3.60;;;21.00;5.00;;;;;;5453970;26;20228;-70
2024/05/04 10:06:38;;;;;;;10.18;4.07;;;21.00;5.00;;;;;;5484677;26;20308;-70
2024/05/04 10:09:03;;;;;;;5.60;4.05;;;21.10;5.00;;;;;;5485880;26;20289;-70
2024/05/04 10:11:33;;;;;;;6.78;4.07;;;21.10;5.00;;;;;;5492090;25;20282;-70
2024/05/04 10:13:58;;;;;;;7.43;3.88;;;21.20;5.00;;;;;;5518389;25;20219;-70
2024/05/04 10:16:24;;;;;;;6.75;3.55;;;21.10;5.00;;;;;;5518041;26;20263;-70
2024/05/04 10:18:49;;;;;;;9.00;4.20;;;21.10;5.00;;;;;;5485867;26;20351;-69
2024/05/04 10:21:28;;;;;;;7.00;4.20;;;21.10;5.00;;;;;;5518042;26;20220;-70
2024/05/04 10:23:54;;;;;;;8.93;3.88;;;21.20;5.00;;;;;;5485397;26;20234;-70
2024/05/04 10:26:20;;;;;;;8.23;3.85;;;21.20;5.00;;;;;;5484713;26;20228;-69
2024/05/04 10:28:58;;;;;;;5.60;3.60;;;21.20;5.00;;;;;;5517747;26;20212;-69
2024/05/04 10:31:25;;;;;;;10.05;4.30;;;21.30;5.00;;;;;;5518374;25;20212;-69
2024/05/04 10:33:51;;;;;;;8.98;4.40;;;21.40;5.00;;;;;;5518442;26;20220;-70
2024/05/04 10:36:17;;;;;;;5.63;3.78;;;21.40;5.00;;;;;;5519819;25;20215;-69
2024/05/04 10:38:56;;;;;;;8.70;3.65;;;21.50;5.00;;;;;;5522193;26;20227;-70
2024/05/04 10:41:25;;;;;;;6.50;2.95;;;21.70;5.00;;;;;;5489195;26;20231;-70
2024/05/04 10:43:51;;;;;;;6.47;3.60;;;21.80;5.00;;;;;;5488854;26;20346;-69
2024/05/04 10:46:17;;;;;;;6.90;3.80;;;21.70;5.00;;;;;;5522128;26;20215;-70
2024/05/04 10:48:43;;;;;;;8.70;3.40;;;21.80;5.00;;;;;;5520762;26;20247;-70
2024/05/04 10:51:10;;;;;;;8.23;3.70;;;21.80;5.00;;;;;;5521786;26;20398;-70
2024/05/04 10:53:35;;;;;;;5.20;3.33;;;21.80;5.00;;;;;;5489711;26;20223;-70
2024/05/04 10:56:01;;;;;;;7.00;3.20;;;21.80;5.00;;;;;;5521734;26;20266;-70
2024/05/04 10:58:27;;;;;;;5.75;3.33;;;21.70;5.00;;;;;;5521957;26;20300;-70
2024/05/04 11:00:55;;;;;;;5.20;2.65;;;21.70;5.00;;;;;;5521608;26;21059;-70
2024/05/04 11:03:22;;;;;;;5.47;2.95;;;21.70;5.00;;;;;;5521834;26;20695;-70
2024/05/04 11:05:47;;;;;;;5.28;3.03;;;21.60;5.00;;;;;;5521182;26;20315;-69
2024/05/04 11:08:13;;;;;;;4.45;2.63;;;21.60;5.00;;;;;;5489058;26;20269;-70
2024/05/04 11:10:39;;;;;;;3.47;2.60;;;21.50;5.00;;;;;;5489289;26;20240;-69
2024/05/04 11:13:06;;;;;;;6.00;2.92;;;21.40;5.00;;;;;;5521260;26;20344;-70
2024/05/04 11:15:34;;;;;;;7.45;3.25;;;21.30;5.00;;;;;;5521340;26;20227;-70
2024/05/04 11:18:04;;;;;;;6.25;2.83;;;21.20;5.00;;;;;;5521572;26;20219;-70
2024/05/04 11:20:29;;;;;;;5.20;3.05;;;21.20;5.00;;;;;;5521367;26;20224;-70
2024/05/04 11:22:55;;;;;;;5.30;3.30;;;21.20;5.00;;;;;;5521350;26;20319;-70
2024/05/04 11:25:21;;;;;;;4.40;3.00;;;21.20;5.00;;;;;;5520231;26;20211;-70
2024/05/04 11:27:47;;;;;;;4.78;3.17;;;21.20;5.00;;;;;;5521670;26;20215;-70
2024/05/04 11:30:13;;;;;;;8.25;3.22;;;21.10;5.00;;;;;;5482675;26;20753;-69
2024/05/04 11:32:38;;;;;;;5.25;2.90;;;21.10;5.00;;;;;;5484609;26;20225;-70
2024/05/04 11:35:04;;;;;;;6.70;3.25;;;21.10;5.00;;;;;;5484264;26;20220;-69
2024/05/04 11:37:30;;;;;;;5.55;3.17;;;21.10;5.00;;;;;;5484485;26;20225;-70
2024/05/04 11:39:55;;;;;;;7.03;3.63;;;21.10;5.00;;;;;;5484382;26;20282;-70
2024/05/04 11:42:21;;;;;;;4.78;3.17;;;21.00;5.00;;;;;;5484340;26;20669;-69
2024/05/04 11:44:46;;;;;;;5.05;2.88;;;21.00;5.00;;;;;;5484762;26;20266;-69
2024/05/04 11:47:12;;;;;;;5.57;3.22;;;21.00;5.00;;;;;;5482611;26;20297;-70
2024/05/04 11:49:37;;;;;;;5.50;3.40;;;20.90;5.00;;;;;;5452304;26;20240;-70
2024/05/04 11:52:03;;;;;;;6.55;2.83;;;21.00;5.00;;;;;;5484765;26;20946;-70
2024/05/04 11:54:29;;;;;;;5.95;2.90;;;20.90;5.00;;;;;;5484582;26;20275;-70
2024/05/04 11:56:54;;;;;;;8.63;3.42;;;20.90;5.00;;;;;;5484259;26;20216;-69
2024/05/04 11:59:20;;;;;;;6.93;2.97;;;20.80;5.00;;;;;;5485222;26;20300;-71
2024/05/04 12:01:45;;;;;;;6.65;2.50;;;20.80;5.00;;;;;;5485088;26;20554;-69
2024/05/04 12:04:11;;;;;;;4.88;2.50;;;20.80;5.00;;;;;;5484336;26;20216;-70
2024/05/04 12:06:36;;;;;;;4.35;2.38;;;20.80;5.00;;;;;;5481766;26;20657;-70
2024/05/04 12:09:02;;;;;;;7.18;2.40;;;20.80;5.00;;;;;;5484208;26;20232;-70
2024/05/04 12:11:27;;;;;;;5.80;2.72;;;20.70;5.00;;;;;;5484147;26;20305;-70
2024/05/04 12:13:55;;;;;;;3.53;2.10;;;20.70;5.00;;;;;;5484266;26;20276;-70
2024/05/04 12:16:21;;;;;;;4.18;2.60;;;20.70;5.00;;;;;;5481918;26;20229;-70
2024/05/04 12:18:47;;;;;;;7.45;2.80;;;20.60;5.00;;;;;;5483558;26;20263;-71
2024/05/04 12:21:13;;;;;;;5.25;2.80;;;20.60;5.00;;;;;;5482187;26;20232;-70
2024/05/04 12:23:38;;;;;;;5.07;2.97;;;20.50;5.00;;;;;;5483588;26;20320;-70
2024/05/04 12:26:04;;;;;;;4.60;2.05;;;20.50;5.00;;;;;;5483439;26;20267;-70
2024/05/04 12:28:30;;;;;;;3.30;2.10;;;20.50;5.00;;;;;;5483822;26;20732;-70
2024/05/04 12:30:55;;;;;;;3.42;2.15;;;20.40;5.00;;;;;;5487043;26;20541;-70
2024/05/04 12:33:21;;;;;;;5.10;2.22;;;20.40;5.00;;;;;;5454761;26;20289;-70
2024/05/04 12:35:46;;;;;;;3.22;2.22;;;20.30;5.00;;;;;;5454265;26;20220;-70
2024/05/04 12:38:14;;;;;;;2.53;1.90;;;20.30;5.00;;;;;;5487518;26;20217;-70
2024/05/04 12:40:43;;;;;;;4.55;1.90;;;20.30;5.00;;;;;;5486850;26;20275;-70
2024/05/04 12:43:09;;;;;;;4.03;2.40;;;20.30;5.00;;;;;;5487313;26;20751;-70
2024/05/04 12:45:35;;;;;;;3.58;2.13;;;20.20;5.00;;;;;;5486655;26;20234;-70
2024/05/04 12:48:01;;;;;;;5.47;2.40;;;20.30;5.00;;;;;;5485185;26;20225;-69